Aeroporto :
LOGIN :

Iscrizione | Disclaimer

   EN    FR    IT 

 










Sommario :    VFR   VFR Marginale   IFR   IFR Intensivo   IFR Molto Intensivo
Visibilità : 
Base nubi : 
>= 8 km
>= 3000ft
5 / 8 km
1000 / 3000 ft
1500m / 5 km
500 / 1000 ft
800 / 1500m
200 / 500 ft
< 800m
< 200 ft
Simboli :   Temporali  Nebbia  Neve Forte  Precipitazioni Forti  Vento > 20 kt
SIGMETs :   Varie  Temporali  Ghiacco  Turbolenza  Onda orograficha  Ceneri Vulcaniche






- Altitudine del aeroporto : 209 ft
- Codice IATA : CLY


LFKC - Calvi

ULTIMO METAR :
  • 121930Z AUTO 17003KT CAVOK 21/14 Q1019 NOSIG

METARs OBSOLETI :
  • 121900Z AUTO 22002KT CAVOK 23/15 Q1019 NOSIG
  • 121830Z AUTO 05003KT CAVOK 24/16 Q1019 NOSIG
  • 121800Z AUTO 03006KT CAVOK 25/15 Q1019 NOSIG
  • 121730Z AUTO 03007KT CAVOK 26/15 Q1019 NOSIG

TAF TAF LFKC
Valido dal 12 a 15 ore il 13 a 15 ore UTC


121400Z 1215/1315 35010KT CAVOK TX31/1312Z TN17/1303Z
BECMG 1219/1220 18004KT
BECMG 1310/1312 22010KT
ATIS : +33 4 95 65 82 49



MetMap, La meteo Aeronautica in un colpo d'occhio ! - Copyright ORBIFLY Dicembre 2007 - Disclaimer

ORBIFLY MET'MAP TEAM :

Programmazione e sviluppo : Alexandra Zaïnal
Concezione : Baudouin d'Aumeries
Aiuto per la programmazione : Marc-Olivier Méhu
Supporto tecnico e logistico : Manuel Goepfert
Aiuto per la traduzione : Arnaldo La Scala

Contatto : metmap@orbifly.com




FONTI E CREDITI :

   NOAA